Terminal Aerodrome Forecast
Issued by NWS

Home | Current Version | Previous Version | Text Only | Print | Product List | Glossary On
Versions: 1 2 3 4 5 6 7 8 9 10 11 12 13
000
FTUS45 KREV 262300
TAFMMH
TAF
KMMH 262327Z 2700/2724 11010G18KT P6SM SCT120 BKN200
     FM270200 VRB04KT P6SM SCT090 BKN140
     FM271000 VRB03KT P6SM VCSH SCT040 OVC070
     FM271400 VRB03KT 2SM -SHSN BKN030 OVC050
     FM272000 13006KT P6SM VCSH SCT050 BKN080
      AMD NOT SKED 2702/2714=

USA.gov is the U.S. government's official web portal to all federal, state and local government web resources and services.